sensor_id;sensor_type;location;lat;lon;timestamp;P1;durP1;ratioP1;P2;durP2;ratioP2
1777;SDS011;886;50.082;8.222;2022-09-30T00:01:25;5.30;;;1.53;;
1777;SDS011;886;50.082;8.222;2022-09-30T00:03:54;1.67;;;1.57;;
1777;SDS011;886;50.082;8.222;2022-09-30T00:06:23;2.53;;;2.33;;
1777;SDS011;886;50.082;8.222;2022-09-30T00:08:51;2.97;;;2.70;;
1777;SDS011;886;50.082;8.222;2022-09-30T00:11:19;2.80;;;2.57;;
1777;SDS011;886;50.082;8.222;2022-09-30T00:13:57;2.40;;;2.20;;
1777;SDS011;886;50.082;8.222;2022-09-30T00:16:24;6.20;;;2.23;;
1777;SDS011;886;50.082;8.222;2022-09-30T00:19:02;2.20;;;2.10;;
1777;SDS011;886;50.082;8.222;2022-09-30T00:21:35;2.70;;;2.07;;
1777;SDS011;886;50.082;8.222;2022-09-30T00:24:03;2.33;;;2.20;;
1777;SDS011;886;50.082;8.222;2022-09-30T00:26:31;2.33;;;2.13;;
1777;SDS011;886;50.082;8.222;2022-09-30T00:29:02;2.67;;;2.20;;
1777;SDS011;886;50.082;8.222;2022-09-30T00:31:31;2.63;;;2.40;;
1777;SDS011;886;50.082;8.222;2022-09-30T00:34:02;1.90;;;1.80;;
1777;SDS011;886;50.082;8.222;2022-09-30T00:36:33;2.10;;;2.00;;
1777;SDS011;886;50.082;8.222;2022-09-30T00:39:03;2.70;;;2.20;;
1777;SDS011;886;50.082;8.222;2022-09-30T00:41:31;2.07;;;1.97;;
1777;SDS011;886;50.082;8.222;2022-09-30T00:43:59;2.40;;;2.20;;
1777;SDS011;886;50.082;8.222;2022-09-30T00:46:28;2.50;;;2.30;;
1777;SDS011;886;50.082;8.222;2022-09-30T00:49:15;2.50;;;2.03;;
1777;SDS011;886;50.082;8.222;2022-09-30T00:51:46;2.43;;;1.93;;
1777;SDS011;886;50.082;8.222;2022-09-30T00:54:18;2.20;;;2.00;;
1777;SDS011;886;50.082;8.222;2022-09-30T00:56:53;1.90;;;1.80;;
1777;SDS011;886;50.082;8.222;2022-09-30T00:59:26;2.40;;;2.20;;
1777;SDS011;886;50.082;8.222;2022-09-30T01:01:58;1.77;;;1.67;;
1777;SDS011;886;50.082;8.222;2022-09-30T01:04:28;5.03;;;2.10;;
1777;SDS011;886;50.082;8.222;2022-09-30T01:06:58;1.80;;;1.70;;
1777;SDS011;886;50.082;8.222;2022-09-30T01:09:26;2.30;;;2.10;;
1777;SDS011;886;50.082;8.222;2022-09-30T01:11:54;2.40;;;2.20;;
1777;SDS011;886;50.082;8.222;2022-09-30T01:14:29;2.90;;;2.67;;
1777;SDS011;886;50.082;8.222;2022-09-30T01:16:58;6.73;;;3.03;;
1777;SDS011;886;50.082;8.222;2022-09-30T01:19:40;6.03;;;2.67;;
1777;SDS011;886;50.082;8.222;2022-09-30T01:22:39;3.33;;;2.20;;
1777;SDS011;886;50.082;8.222;2022-09-30T01:25:23;3.47;;;2.10;;
1777;SDS011;886;50.082;8.222;2022-09-30T01:28:27;4.13;;;2.17;;
1777;SDS011;886;50.082;8.222;2022-09-30T01:31:20;2.80;;;1.80;;
1777;SDS011;886;50.082;8.222;2022-09-30T01:34:08;2.50;;;2.00;;
1777;SDS011;886;50.082;8.222;2022-09-30T01:36:46;6.97;;;1.97;;
1777;SDS011;886;50.082;8.222;2022-09-30T01:39:31;1.97;;;1.87;;
1777;SDS011;886;50.082;8.222;2022-09-30T01:42:09;1.87;;;1.50;;
1777;SDS011;886;50.082;8.222;2022-09-30T01:44:46;2.97;;;1.83;;
1777;SDS011;886;50.082;8.222;2022-09-30T01:47:22;2.77;;;1.87;;
1777;SDS011;886;50.082;8.222;2022-09-30T01:49:52;2.50;;;2.30;;
1777;SDS011;886;50.082;8.222;2022-09-30T01:52:26;3.10;;;2.37;;
1777;SDS011;886;50.082;8.222;2022-09-30T01:55:01;1.83;;;1.73;;
1777;SDS011;886;50.082;8.222;2022-09-30T01:57:35;2.53;;;2.30;;
1777;SDS011;886;50.082;8.222;2022-09-30T02:00:09;2.90;;;2.70;;
1777;SDS011;886;50.082;8.222;2022-09-30T02:02:43;1.90;;;1.80;;
1777;SDS011;886;50.082;8.222;2022-09-30T02:05:16;1.93;;;1.83;;
1777;SDS011;886;50.082;8.222;2022-09-30T02:07:48;2.40;;;2.20;;
1777;SDS011;886;50.082;8.222;2022-09-30T02:10:24;2.00;;;1.80;;
1777;SDS011;886;50.082;8.222;2022-09-30T02:12:56;6.90;;;2.40;;
1777;SDS011;886;50.082;8.222;2022-09-30T02:15:30;2.10;;;1.90;;
1777;SDS011;886;50.082;8.222;2022-09-30T02:18:11;4.63;;;2.10;;
1777;SDS011;886;50.082;8.222;2022-09-30T02:20:46;4.17;;;2.07;;
1777;SDS011;886;50.082;8.222;2022-09-30T02:23:22;3.00;;;2.20;;
1777;SDS011;886;50.082;8.222;2022-09-30T02:26:02;2.17;;;1.97;;
1777;SDS011;886;50.082;8.222;2022-09-30T02:28:37;6.50;;;2.03;;
1777;SDS011;886;50.082;8.222;2022-09-30T02:31:08;2.73;;;1.93;;
1777;SDS011;886;50.082;8.222;2022-09-30T02:33:40;2.27;;;2.17;;
1777;SDS011;886;50.082;8.222;2022-09-30T02:36:15;2.63;;;1.90;;
1777;SDS011;886;50.082;8.222;2022-09-30T02:38:47;2.50;;;2.30;;
1777;SDS011;886;50.082;8.222;2022-09-30T02:41:24;1.73;;;1.63;;
1777;SDS011;886;50.082;8.222;2022-09-30T02:43:54;1.87;;;1.77;;
1777;SDS011;886;50.082;8.222;2022-09-30T02:46:23;2.85;;;2.40;;
1777;SDS011;886;50.082;8.222;2022-09-30T02:49:05;1.87;;;1.77;;
1777;SDS011;886;50.082;8.222;2022-09-30T02:51:46;1.90;;;1.80;;
1777;SDS011;886;50.082;8.222;2022-09-30T02:54:33;2.10;;;1.90;;
1777;SDS011;886;50.082;8.222;2022-09-30T02:57:11;1.63;;;1.50;;
1777;SDS011;886;50.082;8.222;2022-09-30T02:59:46;2.10;;;2.00;;
1777;SDS011;886;50.082;8.222;2022-09-30T03:02:16;2.77;;;2.47;;
1777;SDS011;886;50.082;8.222;2022-09-30T03:04:51;3.20;;;2.23;;
1777;SDS011;886;50.082;8.222;2022-09-30T03:07:22;2.00;;;1.90;;
1777;SDS011;886;50.082;8.222;2022-09-30T03:09:53;4.10;;;2.60;;
1777;SDS011;886;50.082;8.222;2022-09-30T03:12:23;2.60;;;2.00;;
1777;SDS011;886;50.082;8.222;2022-09-30T03:15:06;3.23;;;2.23;;
1777;SDS011;886;50.082;8.222;2022-09-30T03:18:12;2.72;;;2.10;;
1777;SDS011;886;50.082;8.222;2022-09-30T03:21:20;2.25;;;2.05;;
1777;SDS011;886;50.082;8.222;2022-09-30T03:24:08;2.43;;;1.90;;
1777;SDS011;886;50.082;8.222;2022-09-30T03:26:53;2.63;;;1.80;;
1777;SDS011;886;50.082;8.222;2022-09-30T03:29:37;2.13;;;1.93;;
1777;SDS011;886;50.082;8.222;2022-09-30T03:32:16;2.20;;;2.00;;
1777;SDS011;886;50.082;8.222;2022-09-30T03:34:59;3.33;;;2.37;;
1777;SDS011;886;50.082;8.222;2022-09-30T03:37:38;1.97;;;1.77;;
1777;SDS011;886;50.082;8.222;2022-09-30T03:40:14;7.43;;;2.20;;
1777;SDS011;886;50.082;8.222;2022-09-30T03:42:51;2.50;;;1.90;;
1777;SDS011;886;50.082;8.222;2022-09-30T03:45:24;2.70;;;1.93;;
1777;SDS011;886;50.082;8.222;2022-09-30T03:47:58;2.10;;;2.00;;
1777;SDS011;886;50.082;8.222;2022-09-30T03:50:30;3.43;;;2.27;;
1777;SDS011;886;50.082;8.222;2022-09-30T03:53:01;2.40;;;2.07;;
1777;SDS011;886;50.082;8.222;2022-09-30T03:55:29;2.20;;;2.00;;
1777;SDS011;886;50.082;8.222;2022-09-30T03:58:01;5.23;;;2.20;;
1777;SDS011;886;50.082;8.222;2022-09-30T04:00:28;3.78;;;1.90;;
1777;SDS011;886;50.082;8.222;2022-09-30T04:02:57;4.93;;;2.10;;
1777;SDS011;886;50.082;8.222;2022-09-30T04:05:24;3.95;;;2.13;;
1777;SDS011;886;50.082;8.222;2022-09-30T04:07:51;2.38;;;1.90;;
1777;SDS011;886;50.082;8.222;2022-09-30T04:10:19;6.43;;;2.43;;
1777;SDS011;886;50.082;8.222;2022-09-30T04:12:46;3.58;;;1.95;;
1777;SDS011;886;50.082;8.222;2022-09-30T04:15:13;2.85;;;2.58;;
1777;SDS011;886;50.082;8.222;2022-09-30T04:17:41;3.40;;;2.30;;
1777;SDS011;886;50.082;8.222;2022-09-30T04:20:08;2.30;;;2.10;;
1777;SDS011;886;50.082;8.222;2022-09-30T04:22:35;2.92;;;2.67;;
1777;SDS011;886;50.082;8.222;2022-09-30T04:25:02;5.20;;;3.40;;
1777;SDS011;886;50.082;8.222;2022-09-30T04:27:32;2.17;;;2.07;;
1777;SDS011;886;50.082;8.222;2022-09-30T04:29:58;2.10;;;1.97;;
1777;SDS011;886;50.082;8.222;2022-09-30T04:32:25;2.75;;;2.20;;
1777;SDS011;886;50.082;8.222;2022-09-30T04:34:53;3.25;;;2.67;;
1777;SDS011;886;50.082;8.222;2022-09-30T04:37:20;2.37;;;2.17;;
1777;SDS011;886;50.082;8.222;2022-09-30T04:39:49;2.80;;;2.10;;
1777;SDS011;886;50.082;8.222;2022-09-30T04:42:16;3.67;;;2.35;;
1777;SDS011;886;50.082;8.222;2022-09-30T04:44:44;5.70;;;3.47;;
1777;SDS011;886;50.082;8.222;2022-09-30T04:47:13;5.03;;;2.33;;
1777;SDS011;886;50.082;8.222;2022-09-30T04:49:40;3.00;;;2.53;;
1777;SDS011;886;50.082;8.222;2022-09-30T04:52:07;2.70;;;2.50;;
1777;SDS011;886;50.082;8.222;2022-09-30T04:54:34;2.90;;;2.65;;
1777;SDS011;886;50.082;8.222;2022-09-30T04:57:01;4.35;;;2.28;;
1777;SDS011;886;50.082;8.222;2022-09-30T04:59:31;4.72;;;2.50;;
1777;SDS011;886;50.082;8.222;2022-09-30T05:02:00;2.70;;;2.50;;
1777;SDS011;886;50.082;8.222;2022-09-30T05:04:27;2.75;;;2.55;;
1777;SDS011;886;50.082;8.222;2022-09-30T05:06:57;2.78;;;1.95;;
1777;SDS011;886;50.082;8.222;2022-09-30T05:09:26;4.03;;;2.30;;
1777;SDS011;886;50.082;8.222;2022-09-30T05:11:53;3.70;;;2.50;;
1777;SDS011;886;50.082;8.222;2022-09-30T05:14:20;3.03;;;2.60;;
1777;SDS011;886;50.082;8.222;2022-09-30T05:16:47;4.40;;;2.73;;
1777;SDS011;886;50.082;8.222;2022-09-30T05:19:15;9.02;;;3.63;;
1777;SDS011;886;50.082;8.222;2022-09-30T05:21:42;6.03;;;3.20;;
1777;SDS011;886;50.082;8.222;2022-09-30T05:24:10;4.47;;;3.17;;
1777;SDS011;886;50.082;8.222;2022-09-30T05:26:37;11.87;;;3.07;;
1777;SDS011;886;50.082;8.222;2022-09-30T05:29:05;3.90;;;3.20;;
1777;SDS011;886;50.082;8.222;2022-09-30T05:31:32;3.60;;;3.30;;
1777;SDS011;886;50.082;8.222;2022-09-30T05:34:00;3.40;;;3.10;;
1777;SDS011;886;50.082;8.222;2022-09-30T05:36:28;3.30;;;3.07;;
1777;SDS011;886;50.082;8.222;2022-09-30T05:38:55;5.07;;;4.57;;
1777;SDS011;886;50.082;8.222;2022-09-30T05:41:22;3.37;;;3.07;;
1777;SDS011;886;50.082;8.222;2022-09-30T05:43:55;2.83;;;2.63;;
1777;SDS011;886;50.082;8.222;2022-09-30T05:46:24;3.60;;;3.30;;
1777;SDS011;886;50.082;8.222;2022-09-30T05:48:51;3.80;;;3.50;;
1777;SDS011;886;50.082;8.222;2022-09-30T05:51:19;3.35;;;2.90;;
1777;SDS011;886;50.082;8.222;2022-09-30T05:53:48;3.50;;;2.30;;
1777;SDS011;886;50.082;8.222;2022-09-30T05:56:16;4.82;;;2.60;;
1777;SDS011;886;50.082;8.222;2022-09-30T05:58:44;3.17;;;2.80;;
1777;SDS011;886;50.082;8.222;2022-09-30T06:01:13;3.00;;;2.80;;
1777;SDS011;886;50.082;8.222;2022-09-30T06:03:41;3.55;;;3.15;;
1777;SDS011;886;50.082;8.222;2022-09-30T06:06:08;3.35;;;2.70;;
1777;SDS011;886;50.082;8.222;2022-09-30T06:08:43;3.05;;;2.53;;
1777;SDS011;886;50.082;8.222;2022-09-30T06:11:14;13.38;;;2.95;;
1777;SDS011;886;50.082;8.222;2022-09-30T06:13:43;3.10;;;2.85;;
1777;SDS011;886;50.082;8.222;2022-09-30T06:16:15;2.83;;;2.50;;
1777;SDS011;886;50.082;8.222;2022-09-30T06:18:43;3.70;;;3.00;;
1777;SDS011;886;50.082;8.222;2022-09-30T06:21:12;5.70;;;2.97;;
1777;SDS011;886;50.082;8.222;2022-09-30T06:23:40;3.70;;;3.30;;
1777;SDS011;886;50.082;8.222;2022-09-30T06:26:09;5.60;;;3.47;;
1777;SDS011;886;50.082;8.222;2022-09-30T06:28:41;3.45;;;2.80;;
1777;SDS011;886;50.082;8.222;2022-09-30T06:31:10;3.57;;;3.27;;
1777;SDS011;886;50.082;8.222;2022-09-30T06:33:37;3.27;;;2.97;;
1777;SDS011;886;50.082;8.222;2022-09-30T06:36:04;3.73;;;2.83;;
1777;SDS011;886;50.082;8.222;2022-09-30T06:38:32;3.73;;;3.17;;
1777;SDS011;886;50.082;8.222;2022-09-30T06:41:02;12.47;;;2.97;;
1777;SDS011;886;50.082;8.222;2022-09-30T06:43:30;3.67;;;2.53;;
1777;SDS011;886;50.082;8.222;2022-09-30T06:46:10;4.00;;;2.87;;
1777;SDS011;886;50.082;8.222;2022-09-30T06:48:47;3.70;;;3.03;;
1777;SDS011;886;50.082;8.222;2022-09-30T06:51:14;31.13;;;4.90;;
1777;SDS011;886;50.082;8.222;2022-09-30T06:53:42;14.50;;;5.73;;
1777;SDS011;886;50.082;8.222;2022-09-30T06:56:09;23.00;;;4.30;;
1777;SDS011;886;50.082;8.222;2022-09-30T06:58:45;12.50;;;4.50;;
1777;SDS011;886;50.082;8.222;2022-09-30T07:01:13;9.97;;;3.87;;
1777;SDS011;886;50.082;8.222;2022-09-30T07:03:41;48.73;;;5.70;;
1777;SDS011;886;50.082;8.222;2022-09-30T07:06:13;250.87;;;21.60;;
1777;SDS011;886;50.082;8.222;2022-09-30T07:08:41;151.70;;;14.37;;
1777;SDS011;886;50.082;8.222;2022-09-30T07:11:09;44.77;;;6.40;;
1777;SDS011;886;50.082;8.222;2022-09-30T07:13:43;14.20;;;5.37;;
1777;SDS011;886;50.082;8.222;2022-09-30T07:16:14;78.80;;;8.80;;
1777;SDS011;886;50.082;8.222;2022-09-30T07:18:43;4.40;;;3.93;;
1777;SDS011;886;50.082;8.222;2022-09-30T07:21:11;4.63;;;4.30;;
1777;SDS011;886;50.082;8.222;2022-09-30T07:23:41;36.10;;;6.13;;
1777;SDS011;886;50.082;8.222;2022-09-30T07:26:13;10.57;;;5.70;;
1777;SDS011;886;50.082;8.222;2022-09-30T07:28:41;8.90;;;5.10;;
1777;SDS011;886;50.082;8.222;2022-09-30T07:31:09;9.40;;;4.90;;
1777;SDS011;886;50.082;8.222;2022-09-30T07:36:41;6.43;;;5.50;;
1777;SDS011;886;50.082;8.222;2022-09-30T07:39:08;17.73;;;6.60;;
1777;SDS011;886;50.082;8.222;2022-09-30T07:41:37;22.33;;;8.23;;
1777;SDS011;886;50.082;8.222;2022-09-30T07:44:14;17.80;;;6.43;;
1777;SDS011;886;50.082;8.222;2022-09-30T07:46:42;9.50;;;5.90;;
1777;SDS011;886;50.082;8.222;2022-09-30T07:49:10;14.60;;;5.70;;
1777;SDS011;886;50.082;8.222;2022-09-30T07:51:44;7.67;;;5.73;;
1777;SDS011;886;50.082;8.222;2022-09-30T07:54:12;11.50;;;5.03;;
1777;SDS011;886;50.082;8.222;2022-09-30T07:56:41;6.47;;;5.57;;
1777;SDS011;886;50.082;8.222;2022-09-30T07:59:29;5.30;;;4.83;;
1777;SDS011;886;50.082;8.222;2022-09-30T08:02:02;16.97;;;6.63;;
1777;SDS011;886;50.082;8.222;2022-09-30T08:04:32;30.20;;;7.00;;
1777;SDS011;886;50.082;8.222;2022-09-30T08:07:01;71.27;;;10.47;;
1777;SDS011;886;50.082;8.222;2022-09-30T08:09:32;16.00;;;7.33;;
1777;SDS011;886;50.082;8.222;2022-09-30T08:12:01;18.17;;;6.83;;
1777;SDS011;886;50.082;8.222;2022-09-30T08:14:29;14.50;;;6.27;;
1777;SDS011;886;50.082;8.222;2022-09-30T08:16:56;28.27;;;7.50;;
1777;SDS011;886;50.082;8.222;2022-09-30T08:19:25;6.07;;;5.53;;
1777;SDS011;886;50.082;8.222;2022-09-30T08:21:54;18.20;;;7.83;;
1777;SDS011;886;50.082;8.222;2022-09-30T08:24:25;7.33;;;6.37;;
1777;SDS011;886;50.082;8.222;2022-09-30T08:26:53;12.10;;;6.30;;
1777;SDS011;886;50.082;8.222;2022-09-30T08:29:23;8.07;;;6.00;;
1777;SDS011;886;50.082;8.222;2022-09-30T08:32:10;5.80;;;5.30;;
1777;SDS011;886;50.082;8.222;2022-09-30T08:34:37;6.60;;;6.10;;
1777;SDS011;886;50.082;8.222;2022-09-30T08:37:07;14.83;;;6.80;;
1777;SDS011;886;50.082;8.222;2022-09-30T08:39:37;8.60;;;6.47;;
1777;SDS011;886;50.082;8.222;2022-09-30T08:42:15;7.87;;;7.07;;
1777;SDS011;886;50.082;8.222;2022-09-30T08:45:16;23.93;;;8.90;;
1777;SDS011;886;50.082;8.222;2022-09-30T08:47:58;14.60;;;7.73;;
1777;SDS011;886;50.082;8.222;2022-09-30T08:50:39;11.33;;;6.90;;
1777;SDS011;886;50.082;8.222;2022-09-30T08:53:21;14.80;;;7.90;;
1777;SDS011;886;50.082;8.222;2022-09-30T08:55:57;8.50;;;7.23;;
1777;SDS011;886;50.082;8.222;2022-09-30T08:58:28;8.17;;;7.37;;
1777;SDS011;886;50.082;8.222;2022-09-30T09:01:03;16.57;;;10.00;;
1777;SDS011;886;50.082;8.222;2022-09-30T09:03:40;14.50;;;8.47;;
1777;SDS011;886;50.082;8.222;2022-09-30T09:06:17;9.90;;;7.73;;
1777;SDS011;886;50.082;8.222;2022-09-30T09:08:56;12.23;;;7.93;;
1777;SDS011;886;50.082;8.222;2022-09-30T09:12:00;10.17;;;8.20;;
1777;SDS011;886;50.082;8.222;2022-09-30T09:14:43;9.70;;;8.73;;
1777;SDS011;886;50.082;8.222;2022-09-30T09:17:37;21.70;;;10.03;;
1777;SDS011;886;50.082;8.222;2022-09-30T09:20:47;27.73;;;9.80;;
1777;SDS011;886;50.082;8.222;2022-09-30T09:23:20;16.47;;;11.10;;
1777;SDS011;886;50.082;8.222;2022-09-30T09:25:53;9.73;;;8.63;;
1777;SDS011;886;50.082;8.222;2022-09-30T09:28:24;17.07;;;10.70;;
1777;SDS011;886;50.082;8.222;2022-09-30T09:31:03;16.43;;;11.27;;
1777;SDS011;886;50.082;8.222;2022-09-30T09:33:39;23.37;;;11.37;;
1777;SDS011;886;50.082;8.222;2022-09-30T09:36:15;29.07;;;14.73;;
1777;SDS011;886;50.082;8.222;2022-09-30T09:39:15;16.07;;;12.00;;
1777;SDS011;886;50.082;8.222;2022-09-30T09:42:16;30.23;;;12.70;;
1777;SDS011;886;50.082;8.222;2022-09-30T09:45:01;19.13;;;12.60;;
1777;SDS011;886;50.082;8.222;2022-09-30T09:47:33;13.77;;;10.50;;
1777;SDS011;886;50.082;8.222;2022-09-30T09:50:00;17.83;;;13.07;;
1777;SDS011;886;50.082;8.222;2022-09-30T09:55:46;14.10;;;10.73;;
1777;SDS011;886;50.082;8.222;2022-09-30T09:58:15;18.47;;;11.30;;
1777;SDS011;886;50.082;8.222;2022-09-30T10:00:46;17.87;;;13.03;;
1777;SDS011;886;50.082;8.222;2022-09-30T10:03:17;14.10;;;12.07;;
1777;SDS011;886;50.082;8.222;2022-09-30T10:06:02;14.63;;;11.70;;
1777;SDS011;886;50.082;8.222;2022-09-30T10:08:32;15.77;;;12.17;;
1777;SDS011;886;50.082;8.222;2022-09-30T10:11:02;16.97;;;11.77;;
1777;SDS011;886;50.082;8.222;2022-09-30T10:13:32;15.00;;;12.23;;
1777;SDS011;886;50.082;8.222;2022-09-30T10:16:30;19.57;;;11.13;;
1777;SDS011;886;50.082;8.222;2022-09-30T10:19:15;15.80;;;11.17;;
1777;SDS011;886;50.082;8.222;2022-09-30T10:21:53;14.63;;;12.70;;
1777;SDS011;886;50.082;8.222;2022-09-30T10:24:44;34.63;;;12.23;;
1777;SDS011;886;50.082;8.222;2022-09-30T10:27:24;16.07;;;10.37;;
1777;SDS011;886;50.082;8.222;2022-09-30T10:29:59;17.77;;;9.93;;
1777;SDS011;886;50.082;8.222;2022-09-30T10:32:28;11.47;;;9.17;;
1777;SDS011;886;50.082;8.222;2022-09-30T10:34:57;12.30;;;7.37;;
1777;SDS011;886;50.082;8.222;2022-09-30T10:37:29;9.43;;;6.80;;
1777;SDS011;886;50.082;8.222;2022-09-30T10:39:57;9.17;;;7.67;;
1777;SDS011;886;50.082;8.222;2022-09-30T10:42:28;9.47;;;7.60;;
1777;SDS011;886;50.082;8.222;2022-09-30T10:44:59;12.30;;;7.70;;
1777;SDS011;886;50.082;8.222;2022-09-30T10:47:33;8.47;;;7.43;;
1777;SDS011;886;50.082;8.222;2022-09-30T10:50:04;14.00;;;6.67;;
1777;SDS011;886;50.082;8.222;2022-09-30T10:52:34;11.33;;;7.20;;
1777;SDS011;886;50.082;8.222;2022-09-30T10:55:06;6.03;;;5.60;;
1777;SDS011;886;50.082;8.222;2022-09-30T10:57:44;7.20;;;6.50;;
1777;SDS011;886;50.082;8.222;2022-09-30T11:00:17;7.00;;;5.20;;
1777;SDS011;886;50.082;8.222;2022-09-30T11:02:50;5.90;;;5.37;;
1777;SDS011;886;50.082;8.222;2022-09-30T11:05:25;6.30;;;5.80;;
1777;SDS011;886;50.082;8.222;2022-09-30T11:08:00;23.50;;;18.80;;
1777;SDS011;886;50.082;8.222;2022-09-30T11:10:35;22.20;;;17.50;;
1777;SDS011;886;50.082;8.222;2022-09-30T11:13:14;7.90;;;6.40;;
1777;SDS011;886;50.082;8.222;2022-09-30T11:15:55;6.60;;;5.10;;
1777;SDS011;886;50.082;8.222;2022-09-30T11:18:33;10.50;;;6.50;;
1777;SDS011;886;50.082;8.222;2022-09-30T11:21:11;7.37;;;6.40;;
1777;SDS011;886;50.082;8.222;2022-09-30T11:23:45;4.70;;;4.30;;
1777;SDS011;886;50.082;8.222;2022-09-30T11:26:19;6.40;;;5.00;;
1777;SDS011;886;50.082;8.222;2022-09-30T11:29:03;5.40;;;4.90;;
1777;SDS011;886;50.082;8.222;2022-09-30T11:31:45;7.33;;;6.60;;
1777;SDS011;886;50.082;8.222;2022-09-30T11:34:33;6.27;;;5.70;;
1777;SDS011;886;50.082;8.222;2022-09-30T11:37:13;8.33;;;6.13;;
1777;SDS011;886;50.082;8.222;2022-09-30T11:39:56;7.70;;;5.77;;
1777;SDS011;886;50.082;8.222;2022-09-30T11:43:02;38.43;;;29.50;;
1777;SDS011;886;50.082;8.222;2022-09-30T11:45:55;6.73;;;5.27;;
1777;SDS011;886;50.082;8.222;2022-09-30T11:49:07;10.90;;;5.67;;
1777;SDS011;886;50.082;8.222;2022-09-30T11:52:06;7.60;;;4.40;;
1777;SDS011;886;50.082;8.222;2022-09-30T11:54:58;5.80;;;4.83;;
1777;SDS011;886;50.082;8.222;2022-09-30T11:57:53;5.13;;;4.73;;
1777;SDS011;886;50.082;8.222;2022-09-30T12:00:49;4.83;;;4.43;;
1777;SDS011;886;50.082;8.222;2022-09-30T12:03:27;5.10;;;4.70;;
1777;SDS011;886;50.082;8.222;2022-09-30T12:06:01;5.90;;;3.90;;
1777;SDS011;886;50.082;8.222;2022-09-30T12:08:34;26.20;;;19.00;;
1777;SDS011;886;50.082;8.222;2022-09-30T12:11:09;14.63;;;12.53;;
1777;SDS011;886;50.082;8.222;2022-09-30T12:13:45;6.33;;;5.00;;
1777;SDS011;886;50.082;8.222;2022-09-30T12:16:20;3.67;;;3.43;;
1777;SDS011;886;50.082;8.222;2022-09-30T12:18:52;7.43;;;4.80;;
1777;SDS011;886;50.082;8.222;2022-09-30T12:21:24;4.07;;;3.77;;
1777;SDS011;886;50.082;8.222;2022-09-30T12:24:03;3.93;;;3.57;;
1777;SDS011;886;50.082;8.222;2022-09-30T12:26:36;3.87;;;3.53;;
1777;SDS011;886;50.082;8.222;2022-09-30T12:29:05;5.70;;;4.10;;
1777;SDS011;886;50.082;8.222;2022-09-30T12:32:09;4.10;;;3.17;;
1777;SDS011;886;50.082;8.222;2022-09-30T12:35:24;7.03;;;4.00;;
1777;SDS011;886;50.082;8.222;2022-09-30T12:38:44;4.47;;;2.83;;
1777;SDS011;886;50.082;8.222;2022-09-30T12:41:34;6.07;;;4.37;;
1777;SDS011;886;50.082;8.222;2022-09-30T12:44:32;4.67;;;3.17;;
1777;SDS011;886;50.082;8.222;2022-09-30T12:47:30;10.20;;;8.67;;
1777;SDS011;886;50.082;8.222;2022-09-30T12:50:08;4.37;;;3.97;;
1777;SDS011;886;50.082;8.222;2022-09-30T12:52:38;4.30;;;3.50;;
1777;SDS011;886;50.082;8.222;2022-09-30T12:55:06;3.60;;;3.30;;
1777;SDS011;886;50.082;8.222;2022-09-30T12:58:03;3.90;;;2.97;;
1777;SDS011;886;50.082;8.222;2022-09-30T13:00:56;6.33;;;3.50;;
1777;SDS011;886;50.082;8.222;2022-09-30T13:03:52;4.33;;;3.33;;
1777;SDS011;886;50.082;8.222;2022-09-30T13:09:58;7.17;;;3.33;;
1777;SDS011;886;50.082;8.222;2022-09-30T13:13:07;3.03;;;2.70;;
1777;SDS011;886;50.082;8.222;2022-09-30T13:15:50;6.00;;;3.20;;
1777;SDS011;886;50.082;8.222;2022-09-30T13:21:46;54.37;;;38.60;;
1777;SDS011;886;50.082;8.222;2022-09-30T13:24:20;16.13;;;9.83;;
1777;SDS011;886;50.082;8.222;2022-09-30T13:27:42;3.10;;;2.57;;
1777;SDS011;886;50.082;8.222;2022-09-30T13:30:30;3.20;;;2.57;;
1777;SDS011;886;50.082;8.222;2022-09-30T13:36:14;5.27;;;2.50;;
1777;SDS011;886;50.082;8.222;2022-09-30T13:39:17;3.80;;;2.63;;
1777;SDS011;886;50.082;8.222;2022-09-30T13:44:45;2.87;;;2.57;;
1777;SDS011;886;50.082;8.222;2022-09-30T13:47:28;2.17;;;1.93;;
1777;SDS011;886;50.082;8.222;2022-09-30T13:50:05;2.50;;;2.17;;
1777;SDS011;886;50.082;8.222;2022-09-30T13:52:41;2.43;;;2.33;;
1777;SDS011;886;50.082;8.222;2022-09-30T13:55:14;2.30;;;2.07;;
1777;SDS011;886;50.082;8.222;2022-09-30T13:57:58;2.60;;;2.40;;
1777;SDS011;886;50.082;8.222;2022-09-30T14:00:44;1.93;;;1.83;;
1777;SDS011;886;50.082;8.222;2022-09-30T14:03:30;1.97;;;1.87;;
1777;SDS011;886;50.082;8.222;2022-09-30T14:06:34;4.07;;;2.20;;
1777;SDS011;886;50.082;8.222;2022-09-30T14:09:23;2.50;;;2.00;;
1777;SDS011;886;50.082;8.222;2022-09-30T14:15:22;3.13;;;2.00;;
1777;SDS011;886;50.082;8.222;2022-09-30T14:21:36;1.80;;;1.70;;
1777;SDS011;886;50.082;8.222;2022-09-30T14:27:07;3.23;;;1.63;;
1777;SDS011;886;50.082;8.222;2022-09-30T14:30:00;2.47;;;1.67;;
1777;SDS011;886;50.082;8.222;2022-09-30T14:32:37;2.83;;;1.80;;
1777;SDS011;886;50.082;8.222;2022-09-30T14:35:34;2.20;;;1.83;;
1777;SDS011;886;50.082;8.222;2022-09-30T14:38:16;3.60;;;2.43;;
1777;SDS011;886;50.082;8.222;2022-09-30T14:40:52;2.77;;;2.40;;
1777;SDS011;886;50.082;8.222;2022-09-30T14:43:23;3.23;;;1.93;;
1777;SDS011;886;50.082;8.222;2022-09-30T14:45:55;1.73;;;1.63;;
1777;SDS011;886;50.082;8.222;2022-09-30T14:48:26;2.63;;;2.43;;
1777;SDS011;886;50.082;8.222;2022-09-30T14:51:04;2.20;;;1.97;;
1777;SDS011;886;50.082;8.222;2022-09-30T14:53:39;2.00;;;1.90;;
1777;SDS011;886;50.082;8.222;2022-09-30T14:56:16;2.20;;;2.07;;
1777;SDS011;886;50.082;8.222;2022-09-30T14:58:48;2.53;;;2.33;;
1777;SDS011;886;50.082;8.222;2022-09-30T15:01:18;2.47;;;1.87;;
1777;SDS011;886;50.082;8.222;2022-09-30T15:03:53;2.80;;;1.73;;
1777;SDS011;886;50.082;8.222;2022-09-30T15:06:23;2.10;;;2.00;;
1777;SDS011;886;50.082;8.222;2022-09-30T15:08:58;2.70;;;2.50;;
1777;SDS011;886;50.082;8.222;2022-09-30T15:11:34;1.93;;;1.83;;
1777;SDS011;886;50.082;8.222;2022-09-30T15:14:06;2.70;;;2.30;;
1777;SDS011;886;50.082;8.222;2022-09-30T15:16:43;4.33;;;2.03;;
1777;SDS011;886;50.082;8.222;2022-09-30T15:19:16;3.67;;;2.07;;
1777;SDS011;886;50.082;8.222;2022-09-30T15:21:49;2.43;;;2.23;;
1777;SDS011;886;50.082;8.222;2022-09-30T15:24:19;2.27;;;1.80;;
1777;SDS011;886;50.082;8.222;2022-09-30T15:26:48;2.17;;;2.07;;
1777;SDS011;886;50.082;8.222;2022-09-30T15:29:18;2.37;;;1.73;;
1777;SDS011;886;50.082;8.222;2022-09-30T15:31:46;2.77;;;2.20;;
1777;SDS011;886;50.082;8.222;2022-09-30T15:34:19;2.50;;;2.30;;
1777;SDS011;886;50.082;8.222;2022-09-30T15:36:54;11.73;;;2.27;;
1777;SDS011;886;50.082;8.222;2022-09-30T15:39:32;2.30;;;2.20;;
1777;SDS011;886;50.082;8.222;2022-09-30T15:42:29;3.10;;;2.00;;
1777;SDS011;886;50.082;8.222;2022-09-30T15:45:01;3.47;;;3.10;;
1777;SDS011;886;50.082;8.222;2022-09-30T15:47:29;3.30;;;2.70;;
1777;SDS011;886;50.082;8.222;2022-09-30T15:49:58;2.73;;;2.30;;
1777;SDS011;886;50.082;8.222;2022-09-30T15:52:26;2.40;;;2.20;;
1777;SDS011;886;50.082;8.222;2022-09-30T15:55:02;1.83;;;1.73;;
1777;SDS011;886;50.082;8.222;2022-09-30T15:58:03;2.23;;;2.03;;
1777;SDS011;886;50.082;8.222;2022-09-30T16:00:31;1.80;;;1.70;;
1777;SDS011;886;50.082;8.222;2022-09-30T16:03:05;2.73;;;2.30;;
1777;SDS011;886;50.082;8.222;2022-09-30T16:05:51;2.40;;;2.20;;
1777;SDS011;886;50.082;8.222;2022-09-30T16:08:20;2.20;;;2.00;;
1777;SDS011;886;50.082;8.222;2022-09-30T16:10:50;2.23;;;2.00;;
1777;SDS011;886;50.082;8.222;2022-09-30T16:13:23;3.27;;;2.33;;
1777;SDS011;886;50.082;8.222;2022-09-30T16:15:55;3.43;;;2.57;;
1777;SDS011;886;50.082;8.222;2022-09-30T16:18:24;3.43;;;3.10;;
1777;SDS011;886;50.082;8.222;2022-09-30T16:21:02;2.50;;;2.40;;
1777;SDS011;886;50.082;8.222;2022-09-30T16:23:34;3.20;;;2.57;;
1777;SDS011;886;50.082;8.222;2022-09-30T16:26:19;2.27;;;2.07;;
1777;SDS011;886;50.082;8.222;2022-09-30T16:28:59;3.40;;;2.13;;
1777;SDS011;886;50.082;8.222;2022-09-30T16:31:35;2.27;;;2.17;;
1777;SDS011;886;50.082;8.222;2022-09-30T16:34:03;2.00;;;1.90;;
1777;SDS011;886;50.082;8.222;2022-09-30T16:36:32;3.27;;;2.83;;
1777;SDS011;886;50.082;8.222;2022-09-30T16:38:59;3.53;;;2.70;;
1777;SDS011;886;50.082;8.222;2022-09-30T16:41:32;5.97;;;2.90;;
1777;SDS011;886;50.082;8.222;2022-09-30T16:43:59;3.33;;;3.03;;
1777;SDS011;886;50.082;8.222;2022-09-30T16:46:36;3.47;;;2.77;;